HunTS Point — WDH2432 — position and weather

sailwx.info

Track history (hours):
 
Tides and Currents Weather Stations Pressure Air Temp Water Temp Dewpoint Dewpoint Depression Visibility Wind Speed Wind Dir Waves Ship Positions

HunTS Point

Owner: NEW YORK, CITY OF, BROOKLYN, NY. More information available from US FCC via Universal Licensing System and Coast Guard Vessel Documentation Center.

Last reported at 2018-Apr-25 22:58 UTC. Time now 2018-Apr-26 11:26 UTC.
Position N 40°48' W 073°54'.

Length 88 m; draft 4.3 m.

Type: Tanker. MMSI: 367597530.

Date/timePositionNaut miles runAvg speedWind from/ knotsBaromVisibWave heightAir tempDewpointWater temp
2018-Apr-25 22:58N 40°48' W 073°54'3 5.7
2018-Apr-25 22:25N 40°46' W 073°57'511.2
2018-Apr-25 22:00N 40°42' W 074°00'510.6
2018-Apr-25 21:30N 40°39' W 074°06'2 4.3
2018-Apr-25 20:58N 40°40' W 074°08'2 5.0
2018-Apr-25 20:30N 40°43' W 074°07'0 0.0
2018-Apr-25 20:00N 40°43' W 074°07'0 0.0
2018-Apr-25 19:26N 40°43' W 074°07'0 0.0
2018-Apr-25 18:59N 40°43' W 074°07'0 0.0
2018-Apr-25 18:25N 40°43' W 074°07'2 3.7
2018-Apr-25 18:00N 40°41' W 074°08'2 3.1
2018-Apr-25 17:30N 40°40' W 074°08'2 5.0
2018-Apr-25 17:00N 40°39' W 074°05'3 5.1
2018-Apr-25 16:30N 40°39' W 074°02'0 0.0
2018-Apr-25 16:00N 40°39' W 074°02'0 0.0
2018-Apr-25 15:30N 40°39' W 074°02'0 0.0
2018-Apr-25 15:00N 40°39' W 074°02'0 0.0
2018-Apr-25 14:29N 40°39' W 074°02'0 0.5
2018-Apr-25 14:00N 40°39' W 074°02'4 8.5
2018-Apr-25 13:30N 40°42' W 073°60'  
2018-Apr-22 09:37N 40°47' W 073°54'0 0.0
2018-Apr-22 09:30N 40°47' W 073°54'0 0.0
2018-Apr-22 09:01N 40°47' W 073°54'0 0.0
2018-Apr-22 08:30N 40°47' W 073°54'0 0.0
2018-Apr-22 08:00N 40°47' W 073°54'0 0.0
2018-Apr-22 07:30N 40°47' W 073°54'0 0.0
2018-Apr-22 07:00N 40°47' W 073°54'0 0.0
2018-Apr-22 06:30N 40°47' W 073°54'0 0.0
2018-Apr-22 06:00N 40°47' W 073°54'0 0.0
2018-Apr-22 05:30N 40°47' W 073°54'0 0.0
2018-Apr-22 05:00N 40°47' W 073°54'0 0.0
2018-Apr-22 04:30N 40°47' W 073°54'0 0.0
2018-Apr-22 04:00N 40°47' W 073°54'0 0.0
2018-Apr-22 03:31N 40°47' W 073°54'0 0.0
2018-Apr-22 03:00N 40°47' W 073°54'0 0.0
2018-Apr-22 02:30N 40°47' W 073°54'0 0.0
2018-Apr-22 02:00N 40°47' W 073°54'0 0.0
2018-Apr-22 01:30N 40°47' W 073°54'0 0.0
2018-Apr-22 01:01N 40°47' W 073°54'0 0.0
2018-Apr-22 00:30N 40°47' W 073°54'0 0.0
2018-Apr-22 00:00N 40°47' W 073°54'0 0.0
2018-Apr-21 23:30N 40°47' W 073°54'0 0.0
2018-Apr-21 23:01N 40°47' W 073°54'0 0.0
2018-Apr-21 22:30N 40°47' W 073°54'0 0.0
2018-Apr-21 22:00N 40°47' W 073°54'0 0.0
2018-Apr-21 21:30N 40°47' W 073°54'0 0.0
2018-Apr-21 21:00N 40°47' W 073°54'0 0.0
2018-Apr-21 20:30N 40°47' W 073°54'0 0.0
2018-Apr-21 20:00N 40°47' W 073°54'0 0.0
2018-Apr-21 19:31N 40°47' W 073°54'0 0.0
2018-Apr-21 19:00N 40°47' W 073°54'0 0.0
2018-Apr-21 18:30N 40°47' W 073°54'0 0.0
2018-Apr-21 18:00N 40°47' W 073°54'0 0.0
2018-Apr-21 17:31N 40°47' W 073°54'0 0.0
2018-Apr-21 17:00N 40°47' W 073°54'0 0.0
2018-Apr-21 16:31N 40°47' W 073°54'0 0.0
2018-Apr-21 15:59N 40°47' W 073°54'0 0.0
2018-Apr-21 15:30N 40°47' W 073°54'0 0.0
2018-Apr-21 15:00N 40°47' W 073°54'0 0.0
2018-Apr-21 14:30N 40°47' W 073°54'0 0.0
2018-Apr-21 14:00N 40°47' W 073°54'0 0.0
2018-Apr-21 13:29N 40°47' W 073°54'0 0.0
2018-Apr-21 13:01N 40°47' W 073°54'0 0.0
2018-Apr-21 12:30N 40°47' W 073°54'0 0.0
2018-Apr-21 12:00N 40°47' W 073°54'0 0.0
2018-Apr-21 11:30N 40°47' W 073°54'0 0.0
2018-Apr-21 11:00N 40°47' W 073°54'0 0.0
2018-Apr-21 10:30N 40°47' W 073°54'0 0.0
2018-Apr-21 10:00N 40°47' W 073°54'0 0.0
2018-Apr-21 09:30N 40°47' W 073°54'0 0.0
2018-Apr-21 09:00N 40°47' W 073°54'0 0.0
2018-Apr-21 08:30N 40°47' W 073°54'0 0.0
2018-Apr-21 08:00N 40°47' W 073°54'0 0.0
2018-Apr-21 07:30N 40°47' W 073°54'0 0.0
2018-Apr-21 07:00N 40°47' W 073°54'0 0.0
2018-Apr-21 06:30N 40°47' W 073°54'0 0.0
2018-Apr-21 06:00N 40°47' W 073°54'0 0.0
2018-Apr-21 05:30N 40°47' W 073°54'0 0.0
2018-Apr-21 05:00N 40°47' W 073°54'0 0.0
2018-Apr-21 04:30N 40°47' W 073°54'0 0.0
2018-Apr-21 04:00N 40°47' W 073°54'0 0.0
2018-Apr-21 03:30N 40°47' W 073°54'0 0.0
2018-Apr-21 03:00N 40°47' W 073°54'0 0.0
2018-Apr-21 02:30N 40°47' W 073°54'0 0.0
2018-Apr-21 02:00N 40°47' W 073°54'0 0.0
2018-Apr-21 01:30N 40°47' W 073°54'0 0.0
2018-Apr-21 01:01N 40°47' W 073°54'0 0.0
2018-Apr-21 00:30N 40°47' W 073°54'0 0.0
2018-Apr-21 00:00N 40°47' W 073°54'0 0.0
2018-Apr-20 23:30N 40°47' W 073°54'0 0.0
2018-Apr-20 23:00N 40°47' W 073°54'0 0.0
2018-Apr-20 22:30N 40°47' W 073°54'0 0.0
2018-Apr-20 22:00N 40°47' W 073°54'0 0.0
2018-Apr-20 21:30N 40°47' W 073°54'0 0.0
2018-Apr-20 21:00N 40°47' W 073°54'0 0.0
2018-Apr-20 20:31N 40°47' W 073°54'0 0.0
2018-Apr-20 20:00N 40°47' W 073°54'0 0.0
2018-Apr-20 19:30N 40°47' W 073°54'0 0.0
2018-Apr-20 19:00N 40°47' W 073°54'0 0.0
2018-Apr-20 18:29N 40°47' W 073°54'0 0.0
2018-Apr-20 18:00N 40°47' W 073°54'0 0.0
2018-Apr-20 17:31N 40°47' W 073°54'0 0.0
2018-Apr-20 17:00N 40°47' W 073°54'0 0.0
2018-Apr-20 16:30N 40°47' W 073°54'0 0.0
2018-Apr-20 16:00N 40°47' W 073°54'0 0.0
2018-Apr-20 15:30N 40°47' W 073°54'0 0.0
2018-Apr-20 15:00N 40°47' W 073°54'0 0.0
2018-Apr-20 14:30N 40°47' W 073°54'0 0.0
2018-Apr-20 14:00N 40°47' W 073°54'0 0.0
2018-Apr-20 13:31N 40°47' W 073°54'0 0.0
2018-Apr-20 13:00N 40°47' W 073°54'0 0.0
2018-Apr-20 12:30N 40°47' W 073°54'0 0.0
2018-Apr-20 12:00N 40°47' W 073°54'0 0.0
2018-Apr-20 11:30N 40°47' W 073°54'0 0.0
2018-Apr-20 11:00N 40°47' W 073°54'0 0.0
2018-Apr-20 10:31N 40°47' W 073°54'0 0.0
2018-Apr-20 10:00N 40°47' W 073°54'0 0.0
2018-Apr-20 09:30N 40°47' W 073°54'0 0.0
2018-Apr-20 09:00N 40°47' W 073°54'0 0.0
2018-Apr-20 08:31N 40°47' W 073°54'0 0.0
2018-Apr-20 08:00N 40°47' W 073°54'0 0.0
2018-Apr-20 07:30N 40°47' W 073°54'0 0.0
2018-Apr-20 07:00N 40°47' W 073°54'0 0.0
2018-Apr-20 06:30N 40°47' W 073°54'0 0.0
2018-Apr-20 06:01N 40°47' W 073°54'0 0.0
2018-Apr-20 05:30N 40°47' W 073°54'0 0.0
2018-Apr-20 05:01N 40°47' W 073°54'0 0.0
2018-Apr-20 04:30N 40°47' W 073°54'0 0.0
2018-Apr-20 04:01N 40°47' W 073°54'0 0.0
2018-Apr-20 03:30N 40°47' W 073°54'0 0.0
2018-Apr-20 03:00N 40°47' W 073°54'0 0.0
2018-Apr-20 02:30N 40°47' W 073°54'0 0.0
2018-Apr-20 02:00N 40°47' W 073°54'0 0.0
2018-Apr-20 01:30N 40°47' W 073°54'0 0.0
2018-Apr-20 01:00N 40°47' W 073°54'0 0.0
2018-Apr-20 00:30N 40°47' W 073°54'0 0.0
2018-Apr-20 00:00N 40°47' W 073°54'0 0.0
2018-Apr-19 23:30N 40°47' W 073°54'0 0.0
2018-Apr-19 23:01N 40°47' W 073°54'0 0.0
2018-Apr-19 22:30N 40°47' W 073°54'0 0.0
2018-Apr-19 22:01N 40°47' W 073°54'0 0.0
2018-Apr-19 21:30N 40°47' W 073°54'0 0.0
2018-Apr-19 21:00N 40°47' W 073°54'0 0.0
2018-Apr-19 20:30N 40°47' W 073°54'0 0.0
2018-Apr-19 20:00N 40°47' W 073°54'0 0.0
2018-Apr-19 19:30N 40°47' W 073°54'0 0.0
2018-Apr-19 19:00N 40°47' W 073°54'0 0.0
2018-Apr-19 18:30N 40°47' W 073°54'0 0.0
2018-Apr-19 17:59N 40°47' W 073°54'0 0.0
2018-Apr-19 17:30N 40°47' W 073°54'0 0.0
2018-Apr-19 17:00N 40°47' W 073°54'0 0.0
2018-Apr-19 16:31N 40°47' W 073°54'0 0.0
2018-Apr-19 16:00N 40°47' W 073°54'0 0.0
2018-Apr-19 15:30N 40°47' W 073°54'0 0.0
2018-Apr-19 15:00N 40°47' W 073°54'0 0.0
2018-Apr-19 14:30N 40°47' W 073°54'0 0.0
2018-Apr-19 14:00N 40°47' W 073°54'0 0.0
2018-Apr-19 13:30N 40°47' W 073°54'0 0.0
2018-Apr-19 13:00N 40°47' W 073°54'0 0.0
2018-Apr-19 12:30N 40°47' W 073°54'0 0.0
2018-Apr-19 12:00N 40°47' W 073°54'0 0.0
2018-Apr-19 11:30N 40°47' W 073°54'0 0.0
2018-Apr-19 11:01N 40°47' W 073°54'0 0.0
2018-Apr-19 10:30N 40°47' W 073°54'0 0.0
2018-Apr-19 10:00N 40°47' W 073°54'0 0.0
2018-Apr-19 09:31N 40°47' W 073°54'0 0.0
2018-Apr-19 09:00N 40°47' W 073°54'0 0.0
2018-Apr-19 08:30N 40°47' W 073°54'0 0.0
2018-Apr-19 08:00N 40°47' W 073°54'0 0.0
2018-Apr-19 07:30N 40°47' W 073°54'0 0.0
2018-Apr-19 07:00N 40°47' W 073°54'0 0.0
2018-Apr-19 06:30N 40°47' W 073°54'0 0.0
2018-Apr-19 06:00N 40°47' W 073°54'0 0.0
2018-Apr-19 05:30N 40°47' W 073°54'0 0.0
2018-Apr-19 05:00N 40°47' W 073°54'0 0.0
2018-Apr-19 04:31N 40°47' W 073°54'0 0.0
2018-Apr-19 04:00N 40°47' W 073°54'0 0.0
2018-Apr-19 03:31N 40°47' W 073°54'0 0.0
2018-Apr-19 03:00N 40°47' W 073°54'0 0.0
2018-Apr-19 02:30N 40°47' W 073°54'0 0.0
2018-Apr-19 02:00N 40°47' W 073°54'0 0.0
2018-Apr-19 01:29N 40°47' W 073°54'0 0.0
2018-Apr-19 01:00N 40°47' W 073°54'0 0.0
2018-Apr-19 00:30N 40°47' W 073°54'0 0.0
2018-Apr-19 00:00N 40°47' W 073°54'0 0.0
2018-Apr-18 23:31N 40°47' W 073°54'0 0.0
2018-Apr-18 23:00N 40°47' W 073°54'0 0.0
2018-Apr-18 22:30N 40°47' W 073°54'0 0.0
2018-Apr-18 22:00N 40°47' W 073°54'0 0.0
2018-Apr-18 21:30N 40°47' W 073°54'0 0.0
2018-Apr-18 21:01N 40°47' W 073°54'0 0.0
2018-Apr-18 20:30N 40°47' W 073°54'0 0.0
2018-Apr-18 20:00N 40°47' W 073°54'0 0.0
2018-Apr-18 19:31N 40°47' W 073°54'0 0.0
2018-Apr-18 19:00N 40°47' W 073°54'0 0.0
2018-Apr-18 18:30N 40°47' W 073°54'0 0.0
2018-Apr-18 18:00N 40°47' W 073°54'0 0.0
2018-Apr-18 17:30N 40°47' W 073°54'0 0.0
2018-Apr-18 17:00N 40°47' W 073°54'0 0.0
2018-Apr-18 16:28N 40°47' W 073°54'0 0.0
2018-Apr-18 16:00N 40°47' W 073°54'0 0.0
2018-Apr-18 15:30N 40°47' W 073°54'0 0.0
2018-Apr-18 15:01N 40°47' W 073°54'0 0.0
2018-Apr-18 14:30N 40°47' W 073°54'0 0.0
2018-Apr-18 14:01N 40°47' W 073°54'0 0.0
2018-Apr-18 13:30N 40°47' W 073°54'0 0.0
2018-Apr-18 13:00N 40°47' W 073°54'0 0.0
2018-Apr-18 12:30N 40°47' W 073°54'0 0.0
2018-Apr-18 12:01N 40°47' W 073°54'0 0.0
2018-Apr-18 11:30N 40°47' W 073°54'0 0.0
2018-Apr-18 10:59N 40°47' W 073°54'0 0.0
2018-Apr-18 10:31N 40°47' W 073°54'0 0.0
2018-Apr-18 10:00N 40°47' W 073°54'0 0.0
2018-Apr-18 09:30N 40°47' W 073°54'0 0.0
2018-Apr-18 08:58N 40°47' W 073°54'0 0.0
2018-Apr-18 08:30N 40°47' W 073°54'0 0.0
2018-Apr-18 08:01N 40°47' W 073°54'0 0.0
2018-Apr-18 07:30N 40°47' W 073°54'0 0.0
2018-Apr-18 07:00N 40°47' W 073°54'0 0.0
2018-Apr-18 06:30N 40°47' W 073°54'0 0.0
2018-Apr-18 06:00N 40°47' W 073°54'0 0.0
2018-Apr-18 05:30N 40°47' W 073°54'0 0.0
2018-Apr-18 04:59N 40°47' W 073°54'0 0.0
2018-Apr-18 04:28N 40°47' W 073°54'0 0.0
2018-Apr-18 04:00N 40°47' W 073°54'0 0.0
2018-Apr-18 03:30N 40°47' W 073°54'0 0.0
2018-Apr-18 03:00N 40°47' W 073°54'0 0.0
2018-Apr-18 02:31N 40°47' W 073°54'0 0.0
2018-Apr-18 02:01N 40°47' W 073°54'0 0.0
2018-Apr-18 01:30N 40°47' W 073°54'0 0.0
2018-Apr-18 01:00N 40°47' W 073°54'0 0.0
2018-Apr-18 00:30N 40°47' W 073°54'0 0.0
2018-Apr-18 00:00N 40°47' W 073°54'0 0.0
2018-Apr-17 23:30N 40°47' W 073°54'1 1.1
2018-Apr-17 23:00N 40°47' W 073°54'1 1.5
2018-Apr-17 22:30N 40°48' W 073°53'0 0.0
2018-Apr-17 22:00N 40°48' W 073°53'0 0.0
2018-Apr-17 21:29N 40°48' W 073°53'1 2.3
2018-Apr-17 20:59N 40°48' W 073°55'3 7.1
2018-Apr-17 20:30N 40°45' W 073°58'3 6.4
2018-Apr-17 20:00N 40°42' W 073°60'4 7.2
2018-Apr-17 19:30N 40°39' W 074°02'1 1.1
2018-Apr-17 19:00N 40°39' W 074°02'0 0.0
2018-Apr-17 18:30N 40°39' W 074°02'0 0.0
2018-Apr-17 18:00N 40°39' W 074°02'0 0.0
2018-Apr-17 17:30N 40°39' W 074°02'2 3.7
2018-Apr-17 17:00N 40°40' W 074°01'5 9.6
2018-Apr-17 16:30N 40°45' W 073°58'4 7.1
2018-Apr-17 16:00N 40°47' W 073°55'0 0.0
2018-Apr-17 15:30N 40°47' W 073°55'0 0.0
2018-Apr-17 15:00N 40°47' W 073°55'0 0.0
2018-Apr-17 14:28N 40°47' W 073°55'1 2.5
2018-Apr-17 14:00N 40°47' W 073°54'0 0.4
2018-Apr-17 13:30N 40°47' W 073°54'0 0.0
2018-Apr-17 13:00N 40°47' W 073°54'0 0.0
2018-Apr-17 12:30N 40°47' W 073°54'0 0.0
2018-Apr-17 12:00N 40°47' W 073°54'0 0.0
2018-Apr-17 11:30N 40°47' W 073°54'0 0.0
2018-Apr-17 11:00N 40°47' W 073°54'0 0.0
2018-Apr-17 10:30N 40°47' W 073°54'0 0.0
2018-Apr-17 10:00N 40°47' W 073°54'0 0.0
2018-Apr-17 09:30N 40°47' W 073°54'0 0.0
2018-Apr-17 09:00N 40°47' W 073°54'0 0.0
2018-Apr-17 08:30N 40°47' W 073°54'0 0.0
2018-Apr-17 08:00N 40°47' W 073°54'0 0.0
2018-Apr-17 07:30N 40°47' W 073°54'0 0.0
2018-Apr-17 07:00N 40°47' W 073°54'0 0.0
2018-Apr-17 06:30N 40°47' W 073°54'0 0.0
2018-Apr-17 06:00N 40°47' W 073°54'0 0.0
2018-Apr-17 05:30N 40°47' W 073°54'0 0.0
2018-Apr-17 05:00N 40°47' W 073°54'0 0.0
2018-Apr-17 04:30N 40°47' W 073°54'0 0.0
2018-Apr-17 04:00N 40°47' W 073°54'0 0.0
2018-Apr-17 03:30N 40°47' W 073°54'0 0.0
2018-Apr-17 03:00N 40°47' W 073°54'0 0.0
2018-Apr-17 02:30N 40°47' W 073°54'0 0.0
2018-Apr-17 02:00N 40°47' W 073°54'0 0.0
2018-Apr-17 01:30N 40°47' W 073°54'0 0.0
2018-Apr-17 01:00N 40°47' W 073°54'0 0.0
2018-Apr-17 00:30N 40°47' W 073°54'0 0.0
2018-Apr-17 00:00N 40°47' W 073°54'0 0.0
2018-Apr-16 23:30N 40°47' W 073°54'0 0.0
2018-Apr-16 23:00N 40°47' W 073°54'1 2.5
2018-Apr-16 22:29N 40°48' W 073°54'510.2
2018-Apr-16 22:00N 40°44' W 073°58'5 9.1
2018-Apr-16 21:30N 40°41' W 074°02'4 8.2
2018-Apr-16 21:00N 40°39' W 074°06'3 5.0
2018-Apr-16 20:30N 40°41' W 074°08'2 3.3
2018-Apr-16 20:00N 40°43' W 074°07'0 0.0
2018-Apr-16 19:30N 40°43' W 074°07'0 0.0
2018-Apr-16 19:00N 40°43' W 074°07'0 0.0
2018-Apr-16 18:30N 40°43' W 074°07'2 3.5
2018-Apr-16 18:00N 40°41' W 074°08'2 4.8
2018-Apr-16 17:30N 40°39' W 074°08'4 7.6
2018-Apr-16 17:00N 40°39' W 074°03'1 1.7
2018-Apr-16 16:30N 40°39' W 074°02'0 0.0
2018-Apr-16 16:00N 40°39' W 074°02'0 0.0
2018-Apr-16 15:30N 40°39' W 074°02'0 0.0
2018-Apr-16 15:00N 40°39' W 074°02'0 0.0
2018-Apr-16 14:30N 40°39' W 074°02'0 0.8
2018-Apr-16 14:00N 40°39' W 074°03'2 3.7
2018-Apr-16 13:30N 40°40' W 074°01'4 7.8
2018-Apr-16 13:00N 40°43' W 073°58'4 7.3
2018-Apr-16 12:28N 40°47' W 073°56'1 1.6
2018-Apr-16 11:58N 40°47' W 073°55'0 0.0
2018-Apr-16 11:30N 40°47' W 073°55'0 0.0
2018-Apr-16 11:00N 40°47' W 073°55'0 0.0
2018-Apr-16 10:30N 40°47' W 073°55'0 0.0
2018-Apr-16 10:00N 40°47' W 073°55'0 0.0
2018-Apr-16 09:30N 40°47' W 073°55'0 0.0
2018-Apr-16 09:00N 40°47' W 073°55'0 0.0
2018-Apr-16 08:30N 40°47' W 073°55'0 0.0
2018-Apr-16 07:59N 40°47' W 073°55'0 0.0
2018-Apr-16 07:29N 40°47' W 073°55'0 0.0
2018-Apr-16 07:00N 40°47' W 073°55'0 0.0
2018-Apr-16 06:30N 40°47' W 073°55'0 0.0
2018-Apr-16 05:59N 40°47' W 073°55'0 0.0
2018-Apr-16 05:30N 40°47' W 073°55'0 0.0
2018-Apr-16 04:43N 40°47' W 073°55'0 0.0
2018-Apr-16 04:29N 40°47' W 073°55'0 0.0
2018-Apr-16 03:58N 40°47' W 073°55'0 0.0
2018-Apr-16 03:29N 40°47' W 073°55'0 0.0
2018-Apr-16 02:56N 40°47' W 073°55'0 0.0
2018-Apr-16 02:23N 40°47' W 073°55'0 0.0
2018-Apr-16 01:57N 40°47' W 073°55'0 0.0
2018-Apr-16 01:29N 40°47' W 073°55'0 0.0
2018-Apr-16 00:57N 40°47' W 073°55'0 0.0
2018-Apr-16 00:28N 40°47' W 073°55'0 0.0
2018-Apr-15 23:57N 40°47' W 073°55'0 0.0
2018-Apr-15 23:25N 40°47' W 073°55'  
Track history (hours):
 
Tides and Currents Weather Stations Pressure Air Temp Water Temp Dewpoint Dewpoint Depression Visibility Wind Speed Wind Dir Waves Ship Positions

HunTS Point

Owner: NEW YORK, CITY OF, BROOKLYN, NY. More information available from US FCC via Universal Licensing System and Coast Guard Vessel Documentation Center.

Last reported at 2018-Apr-25 22:58 UTC. Time now 2018-Apr-26 11:26 UTC.
Position N 40°48' W 073°54'.

Length 88 m; draft 4.3 m.

Type: Tanker. MMSI: 367597530.

Date/timePositionNaut miles runAvg speedWind from/ knotsBaromVisibWave heightAir tempDewpointWater temp
2018-Apr-25 22:58N 40°48' W 073°54'3 5.7
2018-Apr-25 22:25N 40°46' W 073°57'511.2
2018-Apr-25 22:00N 40°42' W 074°00'510.6
2018-Apr-25 21:30N 40°39' W 074°06'2 4.3
2018-Apr-25 20:58N 40°40' W 074°08'2 5.0
2018-Apr-25 20:30N 40°43' W 074°07'0 0.0
2018-Apr-25 20:00N 40°43' W 074°07'0 0.0
2018-Apr-25 19:26N 40°43' W 074°07'0 0.0
2018-Apr-25 18:59N 40°43' W 074°07'0 0.0
2018-Apr-25 18:25N 40°43' W 074°07'2 3.7
2018-Apr-25 18:00N 40°41' W 074°08'2 3.1
2018-Apr-25 17:30N 40°40' W 074°08'2 5.0
2018-Apr-25 17:00N 40°39' W 074°05'3 5.1
2018-Apr-25 16:30N 40°39' W 074°02'0 0.0
2018-Apr-25 16:00N 40°39' W 074°02'0 0.0
2018-Apr-25 15:30N 40°39' W 074°02'0 0.0
2018-Apr-25 15:00N 40°39' W 074°02'0 0.0
2018-Apr-25 14:29N 40°39' W 074°02'0 0.5
2018-Apr-25 14:00N 40°39' W 074°02'4 8.5
2018-Apr-25 13:30N 40°42' W 073°60'  
2018-Apr-22 09:37N 40°47' W 073°54'0 0.0
2018-Apr-22 09:30N 40°47' W 073°54'0 0.0
2018-Apr-22 09:01N 40°47' W 073°54'0 0.0
2018-Apr-22 08:30N 40°47' W 073°54'0 0.0
2018-Apr-22 08:00N 40°47' W 073°54'0 0.0
2018-Apr-22 07:30N 40°47' W 073°54'0 0.0
2018-Apr-22 07:00N 40°47' W 073°54'0 0.0
2018-Apr-22 06:30N 40°47' W 073°54'0 0.0
2018-Apr-22 06:00N 40°47' W 073°54'0 0.0
2018-Apr-22 05:30N 40°47' W 073°54'0 0.0
2018-Apr-22 05:00N 40°47' W 073°54'0 0.0
2018-Apr-22 04:30N 40°47' W 073°54'0 0.0
2018-Apr-22 04:00N 40°47' W 073°54'0 0.0
2018-Apr-22 03:31N 40°47' W 073°54'0 0.0
2018-Apr-22 03:00N 40°47' W 073°54'0 0.0
2018-Apr-22 02:30N 40°47' W 073°54'0 0.0
2018-Apr-22 02:00N 40°47' W 073°54'0 0.0
2018-Apr-22 01:30N 40°47' W 073°54'0 0.0
2018-Apr-22 01:01N 40°47' W 073°54'0 0.0
2018-Apr-22 00:30N 40°47' W 073°54'0 0.0
2018-Apr-22 00:00N 40°47' W 073°54'0 0.0
2018-Apr-21 23:30N 40°47' W 073°54'0 0.0
2018-Apr-21 23:01N 40°47' W 073°54'0 0.0
2018-Apr-21 22:30N 40°47' W 073°54'0 0.0
2018-Apr-21 22:00N 40°47' W 073°54'0 0.0
2018-Apr-21 21:30N 40°47' W 073°54'0 0.0
2018-Apr-21 21:00N 40°47' W 073°54'0 0.0
2018-Apr-21 20:30N 40°47' W 073°54'0 0.0
2018-Apr-21 20:00N 40°47' W 073°54'0 0.0
2018-Apr-21 19:31N 40°47' W 073°54'0 0.0
2018-Apr-21 19:00N 40°47' W 073°54'0 0.0
2018-Apr-21 18:30N 40°47' W 073°54'0 0.0
2018-Apr-21 18:00N 40°47' W 073°54'0 0.0
2018-Apr-21 17:31N 40°47' W 073°54'0 0.0
2018-Apr-21 17:00N 40°47' W 073°54'0 0.0
2018-Apr-21 16:31N 40°47' W 073°54'0 0.0
2018-Apr-21 15:59N 40°47' W 073°54'0 0.0
2018-Apr-21 15:30N 40°47' W 073°54'0 0.0
2018-Apr-21 15:00N 40°47' W 073°54'0 0.0
2018-Apr-21 14:30N 40°47' W 073°54'0 0.0
2018-Apr-21 14:00N 40°47' W 073°54'0 0.0
2018-Apr-21 13:29N 40°47' W 073°54'0 0.0
2018-Apr-21 13:01N 40°47' W 073°54'0 0.0
2018-Apr-21 12:30N 40°47' W 073°54'0 0.0
2018-Apr-21 12:00N 40°47' W 073°54'0 0.0
2018-Apr-21 11:30N 40°47' W 073°54'0 0.0
2018-Apr-21 11:00N 40°47' W 073°54'0 0.0
2018-Apr-21 10:30N 40°47' W 073°54'0 0.0
2018-Apr-21 10:00N 40°47' W 073°54'0 0.0
2018-Apr-21 09:30N 40°47' W 073°54'0 0.0
2018-Apr-21 09:00N 40°47' W 073°54'0 0.0
2018-Apr-21 08:30N 40°47' W 073°54'0 0.0
2018-Apr-21 08:00N 40°47' W 073°54'0 0.0
2018-Apr-21 07:30N 40°47' W 073°54'0 0.0
2018-Apr-21 07:00N 40°47' W 073°54'0 0.0
2018-Apr-21 06:30N 40°47' W 073°54'0 0.0
2018-Apr-21 06:00N 40°47' W 073°54'0 0.0
2018-Apr-21 05:30N 40°47' W 073°54'0 0.0
2018-Apr-21 05:00N 40°47' W 073°54'0 0.0
2018-Apr-21 04:30N 40°47' W 073°54'0 0.0
2018-Apr-21 04:00N 40°47' W 073°54'0 0.0
2018-Apr-21 03:30N 40°47' W 073°54'0 0.0
2018-Apr-21 03:00N 40°47' W 073°54'0 0.0
2018-Apr-21 02:30N 40°47' W 073°54'0 0.0
2018-Apr-21 02:00N 40°47' W 073°54'0 0.0
2018-Apr-21 01:30N 40°47' W 073°54'0 0.0
2018-Apr-21 01:01N 40°47' W 073°54'0 0.0
2018-Apr-21 00:30N 40°47' W 073°54'0 0.0
2018-Apr-21 00:00N 40°47' W 073°54'0 0.0
2018-Apr-20 23:30N 40°47' W 073°54'0 0.0
2018-Apr-20 23:00N 40°47' W 073°54'0 0.0
2018-Apr-20 22:30N 40°47' W 073°54'0 0.0
2018-Apr-20 22:00N 40°47' W 073°54'0 0.0
2018-Apr-20 21:30N 40°47' W 073°54'0 0.0
2018-Apr-20 21:00N 40°47' W 073°54'0 0.0
2018-Apr-20 20:31N 40°47' W 073°54'0 0.0
2018-Apr-20 20:00N 40°47' W 073°54'0 0.0
2018-Apr-20 19:30N 40°47' W 073°54'0 0.0
2018-Apr-20 19:00N 40°47' W 073°54'0 0.0
2018-Apr-20 18:29N 40°47' W 073°54'0 0.0
2018-Apr-20 18:00N 40°47' W 073°54'0 0.0
2018-Apr-20 17:31N 40°47' W 073°54'0 0.0
2018-Apr-20 17:00N 40°47' W 073°54'0 0.0
2018-Apr-20 16:30N 40°47' W 073°54'0 0.0
2018-Apr-20 16:00N 40°47' W 073°54'0 0.0
2018-Apr-20 15:30N 40°47' W 073°54'0 0.0
2018-Apr-20 15:00N 40°47' W 073°54'0 0.0
2018-Apr-20 14:30N 40°47' W 073°54'0 0.0
2018-Apr-20 14:00N 40°47' W 073°54'0 0.0
2018-Apr-20 13:31N 40°47' W 073°54'0 0.0
2018-Apr-20 13:00N 40°47' W 073°54'0 0.0
2018-Apr-20 12:30N 40°47' W 073°54'0 0.0
2018-Apr-20 12:00N 40°47' W 073°54'0 0.0
2018-Apr-20 11:30N 40°47' W 073°54'0 0.0
2018-Apr-20 11:00N 40°47' W 073°54'0 0.0
2018-Apr-20 10:31N 40°47' W 073°54'0 0.0
2018-Apr-20 10:00N 40°47' W 073°54'0 0.0
2018-Apr-20 09:30N 40°47' W 073°54'0 0.0
2018-Apr-20 09:00N 40°47' W 073°54'0 0.0
2018-Apr-20 08:31N 40°47' W 073°54'0 0.0
2018-Apr-20 08:00N 40°47' W 073°54'0 0.0
2018-Apr-20 07:30N 40°47' W 073°54'0 0.0
2018-Apr-20 07:00N 40°47' W 073°54'0 0.0
2018-Apr-20 06:30N 40°47' W 073°54'0 0.0
2018-Apr-20 06:01N 40°47' W 073°54'0 0.0
2018-Apr-20 05:30N 40°47' W 073°54'0 0.0
2018-Apr-20 05:01N 40°47' W 073°54'0 0.0
2018-Apr-20 04:30N 40°47' W 073°54'0 0.0
2018-Apr-20 04:01N 40°47' W 073°54'0 0.0
2018-Apr-20 03:30N 40°47' W 073°54'0 0.0
2018-Apr-20 03:00N 40°47' W 073°54'0 0.0
2018-Apr-20 02:30N 40°47' W 073°54'0 0.0
2018-Apr-20 02:00N 40°47' W 073°54'0 0.0
2018-Apr-20 01:30N 40°47' W 073°54'0 0.0
2018-Apr-20 01:00N 40°47' W 073°54'0 0.0
2018-Apr-20 00:30N 40°47' W 073°54'0 0.0
2018-Apr-20 00:00N 40°47' W 073°54'0 0.0
2018-Apr-19 23:30N 40°47' W 073°54'0 0.0
2018-Apr-19 23:01N 40°47' W 073°54'0 0.0
2018-Apr-19 22:30N 40°47' W 073°54'0 0.0
2018-Apr-19 22:01N 40°47' W 073°54'0 0.0
2018-Apr-19 21:30N 40°47' W 073°54'0 0.0
2018-Apr-19 21:00N 40°47' W 073°54'0 0.0
2018-Apr-19 20:30N 40°47' W 073°54'0 0.0
2018-Apr-19 20:00N 40°47' W 073°54'0 0.0
2018-Apr-19 19:30N 40°47' W 073°54'0 0.0
2018-Apr-19 19:00N 40°47' W 073°54'0 0.0
2018-Apr-19 18:30N 40°47' W 073°54'0 0.0
2018-Apr-19 17:59N 40°47' W 073°54'0 0.0
2018-Apr-19 17:30N 40°47' W 073°54'0 0.0
2018-Apr-19 17:00N 40°47' W 073°54'0 0.0
2018-Apr-19 16:31N 40°47' W 073°54'0 0.0
2018-Apr-19 16:00N 40°47' W 073°54'0 0.0
2018-Apr-19 15:30N 40°47' W 073°54'0 0.0
2018-Apr-19 15:00N 40°47' W 073°54'0 0.0
2018-Apr-19 14:30N 40°47' W 073°54'0 0.0
2018-Apr-19 14:00N 40°47' W 073°54'0 0.0
2018-Apr-19 13:30N 40°47' W 073°54'0 0.0
2018-Apr-19 13:00N 40°47' W 073°54'0 0.0
2018-Apr-19 12:30N 40°47' W 073°54'0 0.0
2018-Apr-19 12:00N 40°47' W 073°54'0 0.0
2018-Apr-19 11:30N 40°47' W 073°54'0 0.0
2018-Apr-19 11:01N 40°47' W 073°54'0 0.0
2018-Apr-19 10:30N 40°47' W 073°54'0 0.0
2018-Apr-19 10:00N 40°47' W 073°54'0 0.0
2018-Apr-19 09:31N 40°47' W 073°54'0 0.0
2018-Apr-19 09:00N 40°47' W 073°54'0 0.0
2018-Apr-19 08:30N 40°47' W 073°54'0 0.0
2018-Apr-19 08:00N 40°47' W 073°54'0 0.0
2018-Apr-19 07:30N 40°47' W 073°54'0 0.0
2018-Apr-19 07:00N 40°47' W 073°54'0 0.0
2018-Apr-19 06:30N 40°47' W 073°54'0 0.0
2018-Apr-19 06:00N 40°47' W 073°54'0 0.0
2018-Apr-19 05:30N 40°47' W 073°54'0 0.0
2018-Apr-19 05:00N 40°47' W 073°54'0 0.0
2018-Apr-19 04:31N 40°47' W 073°54'0 0.0
2018-Apr-19 04:00N 40°47' W 073°54'0 0.0
2018-Apr-19 03:31N 40°47' W 073°54'0 0.0
2018-Apr-19 03:00N 40°47' W 073°54'0 0.0
2018-Apr-19 02:30N 40°47' W 073°54'0 0.0
2018-Apr-19 02:00N 40°47' W 073°54'0 0.0
2018-Apr-19 01:29N 40°47' W 073°54'0 0.0
2018-Apr-19 01:00N 40°47' W 073°54'0 0.0
2018-Apr-19 00:30N 40°47' W 073°54'0 0.0
2018-Apr-19 00:00N 40°47' W 073°54'0 0.0
2018-Apr-18 23:31N 40°47' W 073°54'0 0.0
2018-Apr-18 23:00N 40°47' W 073°54'0 0.0
2018-Apr-18 22:30N 40°47' W 073°54'0 0.0
2018-Apr-18 22:00N 40°47' W 073°54'0 0.0
2018-Apr-18 21:30N 40°47' W 073°54'0 0.0
2018-Apr-18 21:01N 40°47' W 073°54'0 0.0
2018-Apr-18 20:30N 40°47' W 073°54'0 0.0
2018-Apr-18 20:00N 40°47' W 073°54'0 0.0
2018-Apr-18 19:31N 40°47' W 073°54'0 0.0
2018-Apr-18 19:00N 40°47' W 073°54'0 0.0
2018-Apr-18 18:30N 40°47' W 073°54'0 0.0
2018-Apr-18 18:00N 40°47' W 073°54'0 0.0
2018-Apr-18 17:30N 40°47' W 073°54'0 0.0
2018-Apr-18 17:00N 40°47' W 073°54'0 0.0
2018-Apr-18 16:28N 40°47' W 073°54'0 0.0
2018-Apr-18 16:00N 40°47' W 073°54'0 0.0
2018-Apr-18 15:30N 40°47' W 073°54'0 0.0
2018-Apr-18 15:01N 40°47' W 073°54'0 0.0
2018-Apr-18 14:30N 40°47' W 073°54'0 0.0
2018-Apr-18 14:01N 40°47' W 073°54'0 0.0
2018-Apr-18 13:30N 40°47' W 073°54'0 0.0
2018-Apr-18 13:00N 40°47' W 073°54'0 0.0
2018-Apr-18 12:30N 40°47' W 073°54'0 0.0
2018-Apr-18 12:01N 40°47' W 073°54'0 0.0
2018-Apr-18 11:30N 40°47' W 073°54'0 0.0
2018-Apr-18 10:59N 40°47' W 073°54'0 0.0
2018-Apr-18 10:31N 40°47' W 073°54'0 0.0
2018-Apr-18 10:00N 40°47' W 073°54'0 0.0
2018-Apr-18 09:30N 40°47' W 073°54'0 0.0
2018-Apr-18 08:58N 40°47' W 073°54'0 0.0
2018-Apr-18 08:30N 40°47' W 073°54'0 0.0
2018-Apr-18 08:01N 40°47' W 073°54'0 0.0
2018-Apr-18 07:30N 40°47' W 073°54'0 0.0
2018-Apr-18 07:00N 40°47' W 073°54'0 0.0
2018-Apr-18 06:30N 40°47' W 073°54'0 0.0
2018-Apr-18 06:00N 40°47' W 073°54'0 0.0
2018-Apr-18 05:30N 40°47' W 073°54'0 0.0
2018-Apr-18 04:59N 40°47' W 073°54'0 0.0
2018-Apr-18 04:28N 40°47' W 073°54'0 0.0
2018-Apr-18 04:00N 40°47' W 073°54'0 0.0
2018-Apr-18 03:30N 40°47' W 073°54'0 0.0
2018-Apr-18 03:00N 40°47' W 073°54'0 0.0
2018-Apr-18 02:31N 40°47' W 073°54'0 0.0
2018-Apr-18 02:01N 40°47' W 073°54'0 0.0
2018-Apr-18 01:30N 40°47' W 073°54'0 0.0
2018-Apr-18 01:00N 40°47' W 073°54'0 0.0
2018-Apr-18 00:30N 40°47' W 073°54'0 0.0
2018-Apr-18 00:00N 40°47' W 073°54'0 0.0
2018-Apr-17 23:30N 40°47' W 073°54'1 1.1
2018-Apr-17 23:00N 40°47' W 073°54'1 1.5
2018-Apr-17 22:30N 40°48' W 073°53'0 0.0
2018-Apr-17 22:00N 40°48' W 073°53'0 0.0
2018-Apr-17 21:29N 40°48' W 073°53'1 2.3
2018-Apr-17 20:59N 40°48' W 073°55'3 7.1
2018-Apr-17 20:30N 40°45' W 073°58'3 6.4
2018-Apr-17 20:00N 40°42' W 073°60'4 7.2
2018-Apr-17 19:30N 40°39' W 074°02'1 1.1
2018-Apr-17 19:00N 40°39' W 074°02'0 0.0
2018-Apr-17 18:30N 40°39' W 074°02'0 0.0
2018-Apr-17 18:00N 40°39' W 074°02'0 0.0
2018-Apr-17 17:30N 40°39' W 074°02'2 3.7
2018-Apr-17 17:00N 40°40' W 074°01'5 9.6
2018-Apr-17 16:30N 40°45' W 073°58'4 7.1
2018-Apr-17 16:00N 40°47' W 073°55'0 0.0
2018-Apr-17 15:30N 40°47' W 073°55'0 0.0
2018-Apr-17 15:00N 40°47' W 073°55'0 0.0
2018-Apr-17 14:28N 40°47' W 073°55'1 2.5
2018-Apr-17 14:00N 40°47' W 073°54'0 0.4
2018-Apr-17 13:30N 40°47' W 073°54'0 0.0
2018-Apr-17 13:00N 40°47' W 073°54'0 0.0
2018-Apr-17 12:30N 40°47' W 073°54'0 0.0
2018-Apr-17 12:00N 40°47' W 073°54'0 0.0
2018-Apr-17 11:30N 40°47' W 073°54'0 0.0
2018-Apr-17 11:00N 40°47' W 073°54'0 0.0
2018-Apr-17 10:30N 40°47' W 073°54'0 0.0
2018-Apr-17 10:00N 40°47' W 073°54'0 0.0
2018-Apr-17 09:30N 40°47' W 073°54'0 0.0
2018-Apr-17 09:00N 40°47' W 073°54'0 0.0
2018-Apr-17 08:30N 40°47' W 073°54'0 0.0
2018-Apr-17 08:00N 40°47' W 073°54'0 0.0
2018-Apr-17 07:30N 40°47' W 073°54'0 0.0
2018-Apr-17 07:00N 40°47' W 073°54'0 0.0
2018-Apr-17 06:30N 40°47' W 073°54'0 0.0
2018-Apr-17 06:00N 40°47' W 073°54'0 0.0
2018-Apr-17 05:30N 40°47' W 073°54'0 0.0
2018-Apr-17 05:00N 40°47' W 073°54'0 0.0
2018-Apr-17 04:30N 40°47' W 073°54'0 0.0
2018-Apr-17 04:00N 40°47' W 073°54'0 0.0
2018-Apr-17 03:30N 40°47' W 073°54'0 0.0
2018-Apr-17 03:00N 40°47' W 073°54'0 0.0
2018-Apr-17 02:30N 40°47' W 073°54'0 0.0
2018-Apr-17 02:00N 40°47' W 073°54'0 0.0
2018-Apr-17 01:30N 40°47' W 073°54'0 0.0
2018-Apr-17 01:00N 40°47' W 073°54'0 0.0
2018-Apr-17 00:30N 40°47' W 073°54'0 0.0
2018-Apr-17 00:00N 40°47' W 073°54'0 0.0
2018-Apr-16 23:30N 40°47' W 073°54'0 0.0
2018-Apr-16 23:00N 40°47' W 073°54'1 2.5
2018-Apr-16 22:29N 40°48' W 073°54'510.2
2018-Apr-16 22:00N 40°44' W 073°58'5 9.1
2018-Apr-16 21:30N 40°41' W 074°02'4 8.2
2018-Apr-16 21:00N 40°39' W 074°06'3 5.0
2018-Apr-16 20:30N 40°41' W 074°08'2 3.3
2018-Apr-16 20:00N 40°43' W 074°07'0 0.0
2018-Apr-16 19:30N 40°43' W 074°07'0 0.0
2018-Apr-16 19:00N 40°43' W 074°07'0 0.0
2018-Apr-16 18:30N 40°43' W 074°07'2 3.5
2018-Apr-16 18:00N 40°41' W 074°08'2 4.8
2018-Apr-16 17:30N 40°39' W 074°08'4 7.6
2018-Apr-16 17:00N 40°39' W 074°03'1 1.7
2018-Apr-16 16:30N 40°39' W 074°02'0 0.0
2018-Apr-16 16:00N 40°39' W 074°02'0 0.0
2018-Apr-16 15:30N 40°39' W 074°02'0 0.0
2018-Apr-16 15:00N 40°39' W 074°02'0 0.0
2018-Apr-16 14:30N 40°39' W 074°02'0 0.8
2018-Apr-16 14:00N 40°39' W 074°03'2 3.7
2018-Apr-16 13:30N 40°40' W 074°01'4 7.8
2018-Apr-16 13:00N 40°43' W 073°58'4 7.3
2018-Apr-16 12:28N 40°47' W 073°56'1 1.6
2018-Apr-16 11:58N 40°47' W 073°55'0 0.0
2018-Apr-16 11:30N 40°47' W 073°55'0 0.0
2018-Apr-16 11:00N 40°47' W 073°55'0 0.0
2018-Apr-16 10:30N 40°47' W 073°55'0 0.0
2018-Apr-16 10:00N 40°47' W 073°55'0 0.0
2018-Apr-16 09:30N 40°47' W 073°55'0 0.0
2018-Apr-16 09:00N 40°47' W 073°55'0 0.0
2018-Apr-16 08:30N 40°47' W 073°55'0 0.0
2018-Apr-16 07:59N 40°47' W 073°55'0 0.0
2018-Apr-16 07:29N 40°47' W 073°55'0 0.0
2018-Apr-16 07:00N 40°47' W 073°55'0 0.0
2018-Apr-16 06:30N 40°47' W 073°55'0 0.0
2018-Apr-16 05:59N 40°47' W 073°55'0 0.0
2018-Apr-16 05:30N 40°47' W 073°55'0 0.0
2018-Apr-16 04:43N 40°47' W 073°55'0 0.0
2018-Apr-16 04:29N 40°47' W 073°55'0 0.0
2018-Apr-16 03:58N 40°47' W 073°55'0 0.0
2018-Apr-16 03:29N 40°47' W 073°55'0 0.0
2018-Apr-16 02:56N 40°47' W 073°55'0 0.0
2018-Apr-16 02:23N 40°47' W 073°55'0 0.0
2018-Apr-16 01:57N 40°47' W 073°55'0 0.0
2018-Apr-16 01:29N 40°47' W 073°55'0 0.0
2018-Apr-16 00:57N 40°47' W 073°55'0 0.0
2018-Apr-16 00:28N 40°47' W 073°55'0 0.0
2018-Apr-15 23:57N 40°47' W 073°55'0 0.0
2018-Apr-15 23:25N 40°47' W 073°55'  

Dump ship's entire track history